Flight Track Log - Related Links

Times and Time Zones

All times are in EDT time to prevent confusion due to time zone crossing. See the N848TC flight status page for this flight to view local times or setup timezone preferences in your user account.

Time Position Orientation Groundspeed Altitude Reporting Facility
EDT Latitude Longitude Course Direction KTS MPH feet Rate Location/Type
Sat 01:36:13 PM 34.8244 -86.3914 109° East 271 312 5,500  Level Memphis Center
Sat 01:37:14 PM 34.8169 -86.3114 96° East 253 291 8,500 2,878 Climbing Memphis Center
Sat 01:38:16 PM 34.7817 -86.2322 118° Southeast 259 298 11,400 2,129 Climbing Memphis Center
Sat 01:39:18 PM 34.7497 -86.1453 114° Southeast 273 314 12,900 774 Climbing Memphis Center
Sat 01:40:00 PM 34.6477 -86.0420 109° East  Level FlightAware Approximate
Sat 01:40:20 PM 34.7039 -86.0372 117° Southeast 320 368 13,000  Level Memphis Center
Sat 01:41:00 PM 34.6222 -85.9526 109° East  Level FlightAware Approximate
Sat 01:41:21 PM 34.6319 -85.9042 123° Southeast 371 427 13,100  Level Memphis Center
Sat 01:42:03 PM 34.5950 -85.8431 126° Southeast 376 433 13,000  Descending Atlanta Center
Sat 01:43:03 PM 34.5361 -85.7308 122° Southeast 386 444 13,100  Climbing Atlanta Center
Sat 01:44:03 PM 34.4811 -85.6189 121° Southeast 386 444 13,000  Descending Atlanta Center
Sat 01:45:03 PM 34.4306 -85.5019 118° Southeast 391 450 13,100  Climbing Atlanta Center
Sat 01:46:03 PM 34.3817 -85.3906 118° Southeast 385 443 13,000 -550 Descending Atlanta Center
Sat 01:47:03 PM 34.3328 -85.2739 117° Southeast 380 437 12,000 -1,050 Descending Atlanta Center
Sat 01:48:03 PM 34.2942 -85.1578 112° Southeast 373 429 10,900 -1,000 Descending Atlanta Center
Sat 01:49:03 PM 34.2639 -85.0617 111° Southeast 342 394 10,000 -900 Descending Atlanta Center
Sat 01:50:03 PM 34.2333 -84.9733 113° Southeast 304 350 9,100 -950 Descending Atlanta Center
Sat 01:51:03 PM 34.2025 -84.8803 112° Southeast 294 338 8,100 -550 Descending Atlanta Center
Sat 01:52:03 PM 34.1383 -84.8142 140° Southeast 294 338 8,000 -850 Descending Atlanta Center
Sat 01:53:03 PM 34.0908 -84.7386 127° Southeast 294 338 6,400 -1,700 Descending Atlanta Center
Sat 01:54:03 PM 34.0472 -84.6606 124° Southeast 288 331 4,600 -1,150 Descending Atlanta Center
Sat 01:55:03 PM 34.0039 -84.5900 127° Southeast 275 316 4,100 -550 Descending Atlanta Center
Sat 01:56:03 PM 33.9539 -84.5247 133° Southeast 270 311 3,500 -700 Descending Atlanta Center
Sat 01:57:03 PM 33.9022 -84.4442 128° Southeast 270 311 2,700 -581 Descending Atlanta Center
Sat 01:58:07 PM 33.8667 -84.3667 119° Southeast 213 245 2,300 -581 Descending Atlanta TRACON
Sat 01:59:07 PM 33.8500 -84.3167 112° Southeast 158 182 1,500 -574 Descending Atlanta TRACON
Sat 02:00:02 PM 33.8833 -84.3000 23° Northeast 188 216 1,200 -327 Descending Atlanta TRACON
Sat 02:02:00 PM 33.8756 -84.3020 180° South  Level Estimated
Sat 02:09:00 PM 33.8756 -84.3020 180° South  Level Estimated
Sat 02:10:00 PM 33.8756 -84.3020 180° South  Level Estimated

Login

Don't have an account? Register now (free) for customized features, flight alerts, and more!